createdAt,value
2018-11-06T00:00:09.216Z,26.4
2018-11-06T00:00:59.466Z,26.4
2018-11-06T00:01:50.648Z,26.4
2018-11-06T00:02:39.618Z,26.4
2018-11-06T00:03:30.243Z,26.4
2018-11-06T00:04:20.236Z,26.4
2018-11-06T00:05:10.335Z,26.3
2018-11-06T00:05:59.149Z,26.4
2018-11-06T00:06:49.500Z,26.4
2018-11-06T00:25:07.177Z,26.3
2018-11-06T00:25:57.360Z,26.3
2018-11-06T00:26:47.172Z,26.3
2018-11-06T00:27:36.958Z,26.3
2018-11-06T00:28:26.919Z,26.3
2018-11-06T00:29:16.959Z,26.3
2018-11-06T00:30:06.943Z,26.3
2018-11-06T00:30:57.089Z,26.3
2018-11-06T00:31:46.974Z,26.3
2018-11-06T00:32:37.774Z,26.3
2018-11-06T00:33:26.237Z,26.3
2018-11-06T00:34:17.705Z,26.3
2018-11-06T00:35:07.967Z,26.3
2018-11-06T00:35:57.831Z,26.3
2018-11-06T00:36:48.075Z,26.3
2018-11-06T00:37:37.363Z,26.3
2018-11-06T00:38:26.496Z,26.3
2018-11-06T00:39:17.708Z,26.3
2018-11-06T00:40:06.979Z,26.3
2018-11-06T00:40:57.344Z,26.3
2018-11-06T00:41:47.878Z,26.3
2018-11-06T00:42:37.256Z,26.3
2018-11-06T00:43:27.544Z,26.2
2018-11-06T00:44:18.173Z,26.3
2018-11-06T00:45:07.741Z,26.3
2018-11-06T00:45:58.206Z,26.3
2018-11-06T00:46:46.733Z,26.2
2018-11-06T00:47:37.828Z,26.2
2018-11-06T00:48:27.710Z,26.2
2018-11-06T00:49:18.216Z,26.2
2018-11-06T00:50:07.736Z,26.2
2018-11-06T00:50:58.581Z,26.2
2018-11-06T00:51:49.423Z,26.2
2018-11-06T00:52:37.217Z,26.2
2018-11-06T00:53:27.973Z,26.2
2018-11-06T00:54:18.001Z,26.2
2018-11-06T00:55:09.110Z,26.2
2018-11-06T00:55:58.941Z,26.2
2018-11-06T00:56:48.917Z,26.2
2018-11-06T00:57:39.350Z,26.2
2018-11-06T00:58:28.753Z,26.2
2018-11-06T00:59:19.283Z,26.2
2018-11-06T01:00:08.864Z,26.2
2018-11-06T01:00:59.085Z,26.2
2018-11-06T01:01:49.507Z,26.2
2018-11-06T01:02:38.814Z,26.2
2018-11-06T01:03:29.788Z,26.2
2018-11-06T01:04:19.525Z,26.2
2018-11-06T01:05:09.475Z,26.2
2018-11-06T01:05:59.477Z,26.1
2018-11-06T01:06:49.778Z,26.1
2018-11-06T01:07:39.765Z,26.1
2018-11-06T01:08:30.687Z,26.1
2018-11-06T01:09:19.595Z,26.1
2018-11-06T01:10:09.747Z,26.1
2018-11-06T01:11:00.072Z,26.1
2018-11-06T01:11:50.371Z,26.1
2018-11-06T01:12:40.101Z,26.1
2018-11-06T01:13:30.459Z,26.1
2018-11-06T01:14:20.011Z,26.1
2018-11-06T01:15:10.844Z,26.1
2018-11-06T01:16:00.359Z,26.1
2018-11-06T01:16:50.728Z,26.1
2018-11-06T01:17:39.966Z,26.1
2018-11-06T01:18:30.647Z,26.1
2018-11-06T01:19:19.858Z,26.1
2018-11-06T01:20:10.978Z,26.1
2018-11-06T01:21:00.736Z,26.1
2018-11-06T01:21:51.071Z,26.1
2018-11-06T01:22:41.136Z,26.1
2018-11-06T01:23:30.344Z,26.1
2018-11-06T01:24:20.497Z,26.1
2018-11-06T01:25:09.759Z,26.1
2018-11-06T01:26:01.191Z,26.1
2018-11-06T01:26:51.171Z,26.1
2018-11-06T01:27:41.268Z,26.1
2018-11-06T01:28:31.858Z,26.1
2018-11-06T01:29:20.258Z,26.1
2018-11-06T01:30:10.863Z,26.1
2018-11-06T01:31:00.939Z,26.1
2018-11-06T01:31:50.937Z,26.1
2018-11-06T01:32:41.636Z,26.1
2018-11-06T01:33:32.460Z,26.1
2018-11-06T01:34:21.693Z,26.1
2018-11-06T01:35:11.806Z,26.1
2018-11-06T01:36:01.924Z,26.1
2018-11-06T01:36:51.888Z,26.1
2018-11-06T01:37:41.680Z,26.1
2018-11-06T01:38:32.235Z,26.1
2018-11-06T01:39:21.323Z,26.1
2018-11-06T01:40:12.435Z,26
2018-11-06T01:41:01.368Z,26.1
2018-11-06T01:41:52.240Z,26
2018-11-06T01:42:42.421Z,26.1
2018-11-06T01:43:33.249Z,26.1
2018-11-06T01:44:21.800Z,26.1
2018-11-06T01:45:12.590Z,26.1
2018-11-06T01:46:02.590Z,26
2018-11-06T01:46:52.327Z,26.1
2018-11-06T01:47:42.961Z,26.1
2018-11-06T01:48:32.280Z,26.1
2018-11-06T01:49:22.371Z,26
2018-11-06T01:50:11.859Z,26
2018-11-06T01:51:02.667Z,26
2018-11-06T01:51:52.670Z,26
2018-11-06T01:52:42.739Z,26
2018-11-06T01:53:33.390Z,26
2018-11-06T01:54:23.446Z,26
2018-11-06T01:55:12.915Z,26
2018-11-06T01:56:04.316Z,26
2018-11-06T01:56:52.564Z,26
2018-11-06T01:57:42.424Z,26
2018-11-06T01:58:32.574Z,26
2018-11-06T01:59:23.299Z,26
2018-11-06T02:00:13.884Z,26
2018-11-06T02:01:03.894Z,26
2018-11-06T02:01:53.984Z,26
2018-11-06T02:02:43.277Z,26
2018-11-06T02:03:33.286Z,26
2018-11-06T02:04:23.904Z,25.9
2018-11-06T02:05:13.363Z,26
2018-11-06T02:06:04.521Z,26
2018-11-06T02:06:54.364Z,25.9
2018-11-06T02:07:43.944Z,26
2018-11-06T02:08:33.706Z,25.9
2018-11-06T02:09:23.536Z,26
2018-11-06T02:10:13.611Z,25.9
2018-11-06T02:11:04.081Z,25.9
2018-11-06T02:11:53.475Z,25.9
2018-11-06T02:12:43.884Z,25.9
2018-11-06T02:13:34.603Z,25.9
2018-11-06T02:14:24.680Z,25.9
2018-11-06T02:15:13.981Z,25.9
2018-11-06T02:16:04.212Z,25.9
2018-11-06T02:16:53.709Z,25.9
2018-11-06T02:17:44.443Z,25.9
2018-11-06T02:18:34.976Z,25.9
2018-11-06T02:19:25.355Z,25.9
2018-11-06T02:20:14.548Z,25.9
2018-11-06T02:21:05.078Z,25.9
2018-11-06T02:21:55.277Z,25.9
2018-11-06T02:22:45.765Z,25.9
2018-11-06T02:23:33.648Z,25.9
2018-11-06T02:24:24.817Z,25.9
2018-11-06T02:25:15.675Z,25.9
2018-11-06T02:26:04.897Z,25.9
2018-11-06T02:26:54.728Z,25.9
2018-11-06T02:27:45.386Z,25.9
2018-11-06T02:28:35.192Z,25.9
2018-11-06T02:29:25.627Z,25.9
2018-11-06T02:30:15.829Z,25.9
2018-11-06T02:31:05.172Z,25.9
2018-11-06T02:31:56.247Z,25.9
2018-11-06T02:32:45.975Z,25.9
2018-11-06T02:33:35.331Z,25.9
2018-11-06T02:34:25.855Z,25.9
2018-11-06T02:35:16.222Z,25.9
2018-11-06T02:36:05.995Z,25.9
2018-11-06T02:36:56.067Z,25.9
2018-11-06T02:37:45.843Z,25.9
2018-11-06T02:38:36.132Z,25.9
2018-11-06T02:39:26.204Z,25.9
2018-11-06T02:40:16.015Z,25.9
2018-11-06T02:41:06.489Z,25.9
2018-11-06T02:41:55.842Z,25.9
2018-11-06T02:42:46.335Z,25.9
2018-11-06T02:43:36.716Z,25.9
2018-11-06T02:44:26.576Z,25.9
2018-11-06T02:45:16.389Z,25.8
2018-11-06T02:46:06.517Z,25.9
2018-11-06T02:46:56.729Z,25.8
2018-11-06T02:47:46.826Z,25.8
2018-11-06T02:48:36.589Z,25.9
2018-11-06T02:49:26.676Z,25.8
2018-11-06T02:50:16.541Z,25.9
2018-11-06T02:51:06.499Z,25.8
2018-11-06T02:51:57.706Z,25.8
2018-11-06T02:52:47.293Z,25.8
2018-11-06T02:53:36.971Z,25.9
2018-11-06T02:54:26.819Z,25.8
2018-11-06T02:55:17.651Z,25.8
2018-11-06T02:56:07.821Z,25.8
2018-11-06T02:56:57.778Z,25.8
2018-11-06T02:57:47.586Z,25.8
2018-11-06T02:58:37.868Z,25.8
2018-11-06T02:59:27.405Z,25.8
2018-11-06T03:00:18.281Z,25.8
2018-11-06T03:01:07.176Z,25.8
2018-11-06T03:01:57.141Z,25.8
2018-11-06T03:02:47.720Z,25.8
2018-11-06T03:03:37.486Z,25.8
2018-11-06T03:04:26.940Z,25.8
2018-11-06T03:05:18.312Z,25.8
2018-11-06T03:06:08.388Z,25.8
2018-11-06T03:06:58.218Z,25.8
2018-11-06T03:07:49.008Z,25.8
2018-11-06T03:08:38.068Z,25.8
2018-11-06T03:09:28.923Z,25.8
2018-11-06T03:10:19.354Z,25.8
2018-11-06T03:11:08.313Z,25.8
2018-11-06T03:11:59.149Z,25.8
2018-11-06T03:12:48.917Z,25.8
2018-11-06T03:13:38.385Z,25.8
2018-11-06T03:14:28.352Z,25.8
2018-11-06T03:15:18.274Z,25.8
2018-11-06T03:16:08.675Z,25.8
2018-11-06T03:16:58.286Z,25.8
2018-11-06T03:17:49.019Z,25.8
2018-11-06T03:18:39.192Z,25.8
2018-11-06T03:19:28.857Z,25.8
2018-11-06T03:20:19.232Z,25.8
2018-11-06T03:21:09.332Z,25.8
2018-11-06T03:21:59.274Z,25.8
2018-11-06T03:22:49.389Z,25.8
2018-11-06T03:23:39.945Z,25.8
2018-11-06T03:24:28.986Z,25.8
2018-11-06T03:25:19.827Z,25.8
2018-11-06T03:26:09.249Z,25.8
2018-11-06T03:27:00.308Z,25.8
2018-11-06T03:27:48.844Z,25.8
2018-11-06T03:28:40.047Z,25.8
2018-11-06T03:29:29.526Z,25.8
2018-11-06T03:30:19.616Z,25.8
2018-11-06T03:31:09.399Z,25.8
2018-11-06T03:32:00.265Z,25.8
2018-11-06T03:32:49.911Z,25.8
2018-11-06T03:33:40.450Z,25.7
2018-11-06T03:34:29.017Z,25.8
2018-11-06T03:35:19.518Z,25.8
2018-11-06T03:36:09.501Z,25.8
2018-11-06T03:36:59.961Z,25.8
2018-11-06T03:37:49.951Z,25.8
2018-11-06T03:38:40.041Z,25.7
2018-11-06T03:39:30.732Z,25.8
2018-11-06T03:40:19.852Z,25.7
2018-11-06T03:41:10.820Z,25.7
2018-11-06T03:42:00.483Z,25.7
2018-11-06T03:42:50.501Z,25.7
2018-11-06T03:43:40.093Z,25.7
2018-11-06T03:44:30.155Z,25.7
2018-11-06T03:45:21.001Z,25.7
2018-11-06T03:46:11.590Z,25.7
2018-11-06T03:47:00.641Z,25.7
2018-11-06T03:47:51.121Z,25.7
2018-11-06T03:48:41.483Z,25.7
2018-11-06T03:49:31.349Z,25.7
2018-11-06T03:50:20.875Z,25.7
2018-11-06T03:51:10.872Z,25.7
2018-11-06T03:52:00.986Z,25.7
2018-11-06T03:52:51.798Z,25.7
2018-11-06T03:53:41.020Z,25.7
2018-11-06T03:54:31.928Z,25.7
2018-11-06T03:55:21.068Z,25.7
2018-11-06T03:56:11.182Z,25.7
2018-11-06T03:57:02.021Z,25.7
2018-11-06T03:57:51.870Z,25.7
2018-11-06T03:58:41.730Z,25.6
2018-11-06T03:59:32.080Z,25.6
2018-11-06T04:00:21.360Z,25.7
2018-11-06T04:01:11.610Z,25.6
2018-11-06T04:02:01.688Z,25.7
2018-11-06T04:02:51.487Z,25.7
2018-11-06T04:03:41.504Z,25.7
2018-11-06T04:04:31.560Z,25.6
2018-11-06T04:05:22.407Z,25.6
2018-11-06T04:06:12.527Z,25.6
2018-11-06T04:07:02.542Z,25.6
2018-11-06T04:07:52.027Z,25.6
2018-11-06T04:08:42.088Z,25.6
2018-11-06T04:09:32.412Z,25.6
2018-11-06T04:10:22.895Z,25.6
2018-11-06T04:11:13.126Z,25.6
2018-11-06T04:12:02.863Z,25.6
2018-11-06T04:12:52.096Z,25.6
2018-11-06T04:13:42.746Z,25.6
2018-11-06T04:14:32.070Z,25.6
2018-11-06T04:15:23.234Z,25.6
2018-11-06T04:16:13.791Z,25.6
2018-11-06T04:17:03.239Z,25.6
2018-11-06T04:17:53.924Z,25.6
2018-11-06T04:18:42.849Z,25.6
2018-11-06T04:19:32.581Z,25.6
2018-11-06T04:20:23.254Z,25.6
2018-11-06T04:21:13.022Z,25.6
2018-11-06T04:22:03.633Z,25.6
2018-11-06T04:22:53.688Z,25.6
2018-11-06T04:23:43.835Z,25.6
2018-11-06T04:24:34.089Z,25.6
2018-11-06T04:25:25.059Z,25.6
2018-11-06T04:26:13.776Z,25.6
2018-11-06T04:27:03.733Z,25.6
2018-11-06T04:27:53.563Z,25.6
2018-11-06T04:28:43.892Z,25.6
2018-11-06T04:29:34.458Z,25.6
2018-11-06T04:30:24.508Z,25.6
2018-11-06T04:31:14.289Z,25.6
2018-11-06T04:32:04.611Z,25.6
2018-11-06T04:32:54.723Z,25.6
2018-11-06T04:33:44.187Z,25.6
2018-11-06T04:34:34.526Z,25.6
2018-11-06T04:35:24.650Z,25.6
2018-11-06T04:36:14.966Z,25.6
2018-11-06T04:54:15.631Z,25.5
2018-11-06T04:55:06.760Z,25.6
2018-11-06T04:55:55.087Z,25.5
2018-11-06T04:56:46.857Z,25.6
2018-11-06T04:57:36.643Z,25.5
2018-11-06T04:58:26.359Z,25.5
2018-11-06T04:59:17.079Z,25.5
2018-11-06T05:00:06.084Z,25.5
2018-11-06T05:00:56.694Z,25.5
2018-11-06T05:01:46.255Z,25.5
2018-11-06T05:02:35.338Z,25.5
2018-11-06T05:03:26.120Z,25.5
2018-11-06T05:04:15.212Z,25.5
2018-11-06T05:05:06.726Z,25.5
2018-11-06T05:05:57.045Z,25.5
2018-11-06T05:06:47.818Z,25.5
2018-11-06T05:07:37.878Z,25.5
2018-11-06T05:08:27.264Z,25.5
2018-11-06T05:09:17.519Z,25.4
2018-11-06T05:10:07.687Z,25.5
2018-11-06T05:10:58.279Z,25.5
2018-11-06T05:11:46.929Z,25.5
2018-11-06T05:12:36.934Z,25.4
2018-11-06T05:13:42.408Z,25.5
2018-11-06T05:14:18.059Z,25.4
2018-11-06T05:15:22.333Z,25.5
2018-11-06T05:15:57.458Z,25.5
2018-11-06T05:16:48.053Z,25.5
2018-11-06T05:17:37.498Z,25.4
2018-11-06T05:18:27.813Z,25.5
2018-11-06T05:19:18.295Z,25.4
2018-11-06T05:20:07.976Z,25.4
2018-11-06T05:20:58.851Z,25.5
2018-11-06T05:21:47.838Z,25.4
2018-11-06T05:22:37.958Z,25.5
2018-11-06T05:23:28.603Z,25.5
2018-11-06T05:24:18.003Z,25.4
2018-11-06T05:25:09.739Z,25.4
2018-11-06T05:25:58.172Z,25.4
2018-11-06T05:26:48.538Z,25.4
2018-11-06T05:27:39.911Z,25.4
2018-11-06T05:28:29.017Z,25.4
2018-11-06T05:29:18.712Z,25.4
2018-11-06T05:30:09.058Z,25.4
2018-11-06T05:30:59.413Z,25.4
2018-11-06T05:31:49.590Z,25.4
2018-11-06T05:32:38.288Z,25.4
2018-11-06T09:08:45.931Z,56.8
2018-11-06T09:09:35.317Z,56.9
2018-11-06T09:10:26.380Z,57
2018-11-06T09:11:15.189Z,57.1
2018-11-06T09:12:05.677Z,57.1
2018-11-06T09:12:56.111Z,57.2
2018-11-06T09:13:46.236Z,57.3
2018-11-06T09:14:35.689Z,57.4
2018-11-06T09:15:25.241Z,57.4
2018-11-06T09:16:16.043Z,57.5
2018-11-06T09:17:07.666Z,57.5
2018-11-06T09:17:56.167Z,57.6
2018-11-06T09:18:45.811Z,57.6
2018-11-06T09:20:25.598Z,57.8
2018-11-06T09:21:15.933Z,57.9
2018-11-06T09:22:06.269Z,58
2018-11-06T09:22:56.319Z,58.1
2018-11-06T09:23:46.691Z,58.2
2018-11-06T09:24:36.510Z,58.3
2018-11-06T09:25:26.531Z,58.3
2018-11-06T09:26:16.335Z,58.4
2018-11-06T09:27:05.838Z,58.4
2018-11-06T09:27:56.858Z,58.5
2018-11-06T09:28:46.846Z,58.6
2018-11-06T09:30:27.199Z,58.8
2018-11-06T09:31:17.261Z,58.8
2018-11-06T09:32:06.499Z,58.8
2018-11-06T09:32:57.736Z,58.9
2018-11-06T09:33:46.630Z,59
2018-11-06T09:34:37.738Z,59.1
2018-11-06T09:35:27.875Z,59.1
2018-11-06T09:36:17.265Z,59.3
2018-11-06T09:37:07.542Z,59.3
2018-11-06T09:37:57.280Z,59.4
2018-11-06T09:38:47.175Z,59.4
2018-11-06T09:39:37.887Z,59.5
2018-11-06T09:41:18.203Z,59.7
2018-11-06T09:42:07.782Z,59.8
2018-11-06T09:42:58.586Z,59.8
2018-11-06T09:43:47.285Z,59.9
2018-11-06T09:44:37.874Z,59.9
2018-11-06T09:45:28.212Z,60
2018-11-06T09:46:17.432Z,60.1
2018-11-06T09:47:07.683Z,60.2
2018-11-06T09:47:57.879Z,60.3
2018-11-06T09:48:48.325Z,60.3
2018-11-06T09:49:37.368Z,60.4
2018-11-06T09:50:27.537Z,60.4
2018-11-06T09:51:17.542Z,60.6
2018-11-06T09:52:10.379Z,60.6
2018-11-06T09:52:57.889Z,60.7
2018-11-06T09:53:48.857Z,60.8
2018-11-06T09:54:38.621Z,60.8
2018-11-06T09:55:28.297Z,60.9
2018-11-06T09:56:18.739Z,61
2018-11-06T09:57:08.647Z,61.1
2018-11-06T09:57:58.601Z,61.1
2018-11-06T09:58:48.237Z,61.2
2018-11-06T09:59:39.284Z,61.3
2018-11-06T10:00:28.989Z,61.3
2018-11-06T10:01:19.488Z,61.4
2018-11-06T10:02:09.102Z,61.4
2018-11-06T10:02:59.796Z,61.5
2018-11-06T10:03:49.396Z,61.6
2018-11-06T10:04:38.949Z,61.6
2018-11-06T10:05:29.126Z,61.7
2018-11-06T10:06:20.984Z,61.8
2018-11-06T10:07:13.582Z,61.9
2018-11-06T10:08:00.399Z,61.9
2018-11-06T10:08:49.603Z,62
2018-11-06T10:09:39.718Z,62.1
2018-11-06T10:10:29.561Z,62.1
2018-11-06T10:11:20.568Z,62.2
2018-11-06T10:12:09.906Z,62.3
2018-11-06T10:13:00.354Z,62.3
2018-11-06T10:13:51.173Z,62.4
2018-11-06T10:14:39.668Z,62.4
2018-11-06T10:15:31.042Z,62.5
2018-11-06T10:16:20.433Z,62.6
2018-11-06T10:17:09.393Z,62.6
2018-11-06T10:18:00.635Z,62.7
2018-11-06T10:18:49.900Z,62.8
2018-11-06T10:19:40.420Z,62.8
2018-11-06T10:20:30.288Z,62.8
2018-11-06T10:21:21.530Z,62.9
2018-11-06T10:22:10.880Z,62.9
2018-11-06T10:23:00.377Z,63
2018-11-06T10:23:50.580Z,63.1
2018-11-06T10:24:41.035Z,63.1
2018-11-06T10:25:31.362Z,63.2
2018-11-06T10:26:21.174Z,63.3
2018-11-06T10:27:10.825Z,63.3
2018-11-06T10:28:00.735Z,63.4
2018-11-06T10:28:51.219Z,63.4
2018-11-06T10:29:41.415Z,63.5
2018-11-06T10:30:30.932Z,63.5
2018-11-06T10:31:20.660Z,63.6
2018-11-06T10:32:11.919Z,63.6
2018-11-06T10:33:01.392Z,63.7
2018-11-06T10:33:52.067Z,63.8
2018-11-06T10:34:41.197Z,63.8
2018-11-06T10:35:31.127Z,63.8
2018-11-06T10:36:22.037Z,63.9
2018-11-06T10:37:11.494Z,64
2018-11-06T10:38:00.958Z,64
2018-11-06T10:38:51.572Z,64
2018-11-06T10:39:42.002Z,64.1
2018-11-06T10:40:31.879Z,64.3
2018-11-06T10:41:21.657Z,64.2
2018-11-06T10:42:11.936Z,64.3
2018-11-06T10:43:01.950Z,64.3
2018-11-06T10:43:53.001Z,64.3
2018-11-06T10:44:42.382Z,64.4
2018-11-06T10:45:32.040Z,64.4
2018-11-06T10:46:22.388Z,64.5
2018-11-06T10:47:12.451Z,64.6
2018-11-06T10:48:01.924Z,64.6
2018-11-06T10:48:52.871Z,64.7
2018-11-06T10:49:42.412Z,64.7
2018-11-06T10:50:32.787Z,64.8
2018-11-06T10:51:23.139Z,64.8
2018-11-06T10:52:12.883Z,64.9
2018-11-06T10:53:02.271Z,64.9
2018-11-06T10:53:51.676Z,64.9
2018-11-06T10:54:43.551Z,64.9
2018-11-06T10:55:33.013Z,65
2018-11-06T10:56:23.407Z,65.1
2018-11-06T10:57:13.495Z,65.1
2018-11-06T10:58:03.602Z,65.1
2018-11-06T10:58:52.938Z,65.2
2018-11-06T10:59:42.901Z,65.3
2018-11-06T11:00:32.883Z,65.3
2018-11-06T11:01:23.628Z,65.3
2018-11-06T11:02:13.671Z,65.3
2018-11-06T11:03:03.590Z,65.4
2018-11-06T11:03:54.374Z,65.4
2018-11-06T11:04:43.980Z,65.4
2018-11-06T11:05:33.645Z,65.5
2018-11-06T11:06:23.352Z,65.6
2018-11-06T11:07:13.325Z,65.6
2018-11-06T11:08:03.875Z,65.6
2018-11-06T11:08:54.316Z,65.7
2018-11-06T11:09:43.947Z,65.8
2018-11-06T11:10:34.403Z,65.8
2018-11-06T11:11:24.337Z,65.9
2018-11-06T11:12:12.837Z,65.9
2018-11-06T11:13:04.673Z,65.9
2018-11-06T11:13:53.909Z,65.9
2018-11-06T11:14:44.177Z,66
2018-11-06T11:15:34.771Z,66
2018-11-06T11:16:25.704Z,66.1
2018-11-06T11:17:14.344Z,66.1
2018-11-06T11:18:04.109Z,66.1
2018-11-06T11:18:55.024Z,66.2
2018-11-06T11:19:43.944Z,66.3
2018-11-06T11:20:34.919Z,66.3
2018-11-06T11:21:25.049Z,66.3
2018-11-06T11:22:15.600Z,66.3
2018-11-06T11:23:05.102Z,66.4
2018-11-06T11:23:54.911Z,66.4
2018-11-06T11:24:45.159Z,66.4
2018-11-06T11:25:36.298Z,66.4
2018-11-06T11:26:24.537Z,66.5
2018-11-06T11:27:16.064Z,66.6
2018-11-06T11:28:04.821Z,66.6
2018-11-06T11:28:55.364Z,66.6
2018-11-06T11:29:44.936Z,66.6
2018-11-06T11:30:35.595Z,66.7
2018-11-06T11:31:26.108Z,66.7
2018-11-06T11:32:16.504Z,66.8
2018-11-06T11:33:06.099Z,66.8
2018-11-06T11:33:56.021Z,66.8
2018-11-06T11:34:45.041Z,66.8
2018-11-06T11:35:35.269Z,66.9
2018-11-06T11:36:26.581Z,66.9
2018-11-06T11:37:16.125Z,66.9
2018-11-06T11:38:05.771Z,66.9
2018-11-06T11:38:56.179Z,66.9
2018-11-06T11:39:46.990Z,66.9
2018-11-06T11:40:35.988Z,66.9
2018-11-06T11:41:27.017Z,67
2018-11-06T11:42:16.963Z,67
2018-11-06T11:43:05.993Z,67
2018-11-06T11:43:56.600Z,67
2018-11-06T11:44:45.438Z,67.1
2018-11-06T11:45:36.196Z,67.1
2018-11-06T11:46:26.288Z,67.1
2018-11-06T11:47:16.278Z,67.1
2018-11-06T11:48:06.421Z,67.2
2018-11-06T11:48:56.733Z,67.2
2018-11-06T11:49:46.950Z,67.2
2018-11-06T11:50:36.460Z,67.3
2018-11-06T11:51:26.422Z,67.3
2018-11-06T11:52:17.426Z,67.3
2018-11-06T11:53:06.912Z,67.3
2018-11-06T11:53:57.197Z,67.3
2018-11-06T11:54:47.375Z,67.3
2018-11-06T11:55:37.512Z,67.3
2018-11-06T11:56:27.769Z,67.3
2018-11-06T11:57:17.444Z,67.3
2018-11-06T11:58:07.075Z,67.3
2018-11-06T11:58:57.687Z,67.3
2018-11-06T11:59:48.511Z,67.3
2018-11-06T12:00:37.371Z,67.3
2018-11-06T12:01:27.845Z,67.3
2018-11-06T12:02:19.113Z,67.3
2018-11-06T12:03:06.877Z,67.3
2018-11-06T12:03:58.296Z,67.3
2018-11-06T12:04:47.571Z,67.3
2018-11-06T12:05:37.874Z,67.3
2018-11-06T12:06:28.248Z,67.2
2018-11-06T12:07:18.529Z,67.3
2018-11-06T12:08:08.801Z,67.2
2018-11-06T12:08:58.151Z,67.3
2018-11-06T12:09:49.001Z,67.2
2018-11-06T12:10:39.064Z,67.2
2018-11-06T12:11:29.004Z,67.2
2018-11-06T12:12:19.446Z,67.3
2018-11-06T12:13:09.238Z,67.3
2018-11-06T12:13:59.069Z,67.2
2018-11-06T12:14:48.828Z,67.2
2018-11-06T12:15:38.393Z,67.2
2018-11-06T12:16:29.204Z,67.2
2018-11-06T12:17:19.448Z,67.2
2018-11-06T12:18:08.725Z,67.1
2018-11-06T12:18:59.634Z,67.1
2018-11-06T12:19:49.062Z,67.1
2018-11-06T12:20:39.806Z,67.1
2018-11-06T12:21:29.091Z,67.1
2018-11-06T12:22:18.288Z,67.1
2018-11-06T12:23:09.907Z,67.1
2018-11-06T12:23:58.934Z,67.1
2018-11-06T12:24:51.101Z,67.1
2018-11-06T12:25:41.384Z,67
2018-11-06T12:26:29.826Z,67
2018-11-06T12:27:19.998Z,67
2018-11-06T12:28:09.483Z,67
2018-11-06T12:28:59.490Z,66.9
2018-11-06T12:29:50.148Z,66.9
2018-11-06T12:30:39.705Z,66.9
2018-11-06T12:31:30.147Z,66.9
2018-11-06T12:32:20.352Z,66.8
2018-11-06T12:33:10.272Z,66.8
2018-11-06T12:34:00.816Z,66.8
2018-11-06T12:34:50.654Z,66.8
2018-11-06T12:35:40.615Z,66.7
2018-11-06T12:36:30.991Z,66.7
2018-11-06T12:37:20.742Z,66.6
2018-11-06T12:38:10.143Z,66.6
2018-11-06T12:38:59.780Z,66.6
2018-11-06T12:39:51.030Z,66.5
2018-11-06T12:40:40.609Z,66.5
2018-11-06T12:41:31.309Z,66.4
2018-11-06T12:42:20.060Z,66.4
2018-11-06T12:43:11.472Z,66.4
2018-11-06T12:44:00.619Z,66.4
2018-11-06T12:44:49.733Z,66.4
2018-11-06T12:45:41.104Z,66.3
2018-11-06T12:46:30.852Z,66.3
2018-11-06T12:47:20.720Z,66.3
2018-11-06T12:48:09.977Z,66.3
2018-11-06T12:49:01.119Z,66.3
2018-11-06T12:49:51.194Z,66.3
2018-11-06T12:50:40.958Z,66.2
2018-11-06T12:51:31.761Z,66.1
2018-11-06T12:52:21.324Z,66.1
2018-11-06T12:53:10.805Z,66.1
2018-11-06T12:54:01.358Z,66
2018-11-06T12:54:52.109Z,65.9
2018-11-06T12:55:40.954Z,65.9
2018-11-06T12:56:32.107Z,65.9
2018-11-06T12:57:22.038Z,65.8
2018-11-06T12:58:12.839Z,65.8
2018-11-06T12:59:02.049Z,65.8
2018-11-06T12:59:51.339Z,65.7
2018-11-06T13:00:42.237Z,65.6
2018-11-06T13:01:31.651Z,65.6
2018-11-06T13:02:22.131Z,65.5
2018-11-06T13:03:12.446Z,65.4
2018-11-06T13:04:01.604Z,65.4
2018-11-06T13:04:52.316Z,65.3
2018-11-06T13:05:41.470Z,65.3
2018-11-06T13:06:32.675Z,65.3
2018-11-06T13:07:22.437Z,65.2
2018-11-06T13:08:12.773Z,65.1
2018-11-06T13:09:02.861Z,65
2018-11-06T13:09:53.443Z,65
2018-11-06T13:10:43.461Z,64.9
2018-11-06T13:11:32.573Z,64.9
2018-11-06T13:12:23.063Z,64.8
2018-11-06T13:13:12.321Z,64.8
2018-11-06T13:14:02.675Z,64.6
2018-11-06T13:14:53.658Z,64.6
2018-11-06T13:15:45.115Z,64.3
2018-11-06T13:16:34.170Z,64.3
2018-11-06T13:17:23.653Z,64.2
2018-11-06T13:18:13.176Z,64.1
2018-11-06T13:19:03.351Z,64
2018-11-06T13:19:53.094Z,63.9
2018-11-06T13:20:43.605Z,63.9
2018-11-06T13:21:33.699Z,63.8
2018-11-06T13:22:23.172Z,63.7
2018-11-06T13:23:14.147Z,63.6
2018-11-06T13:24:03.572Z,63.6
2018-11-06T13:24:53.616Z,63.4
2018-11-06T13:25:44.081Z,63.4
2018-11-06T13:26:34.813Z,63.3
2018-11-06T13:27:24.294Z,63.2
2018-11-06T13:28:13.814Z,63.1
2018-11-06T13:29:03.999Z,63
2018-11-06T13:29:54.686Z,62.9
2018-11-06T13:30:44.788Z,62.8
2018-11-06T13:31:33.870Z,62.8
2018-11-06T13:32:25.327Z,62.7
2018-11-06T13:33:14.535Z,62.5
2018-11-06T13:34:04.308Z,62.4
2018-11-06T13:34:55.230Z,62.4
2018-11-06T13:35:45.157Z,62.3
2018-11-06T13:36:35.039Z,62.1
2018-11-06T13:37:24.166Z,62.1
2018-11-06T13:38:15.774Z,61.9
2018-11-06T13:39:05.083Z,61.9
2018-11-06T13:39:55.631Z,61.8
2018-11-06T13:40:44.821Z,61.6
2018-11-06T13:41:35.531Z,61.6
2018-11-06T13:42:24.430Z,61.4
2018-11-06T13:43:15.576Z,61.4
2018-11-06T13:44:07.326Z,61.3
2018-11-06T13:44:56.659Z,61.1
2018-11-06T13:45:47.255Z,61
2018-11-06T13:46:35.025Z,60.9
2018-11-06T13:47:25.423Z,60.8
2018-11-06T13:48:14.754Z,60.7
2018-11-06T13:49:05.813Z,60.6
2018-11-06T13:49:55.512Z,60.5
2018-11-06T14:07:36.255Z,54.1
2018-11-06T14:08:25.687Z,53.5
2018-11-06T14:09:15.575Z,53.1
2018-11-06T14:10:06.806Z,52.6
2018-11-06T14:10:56.551Z,52.2
2018-11-06T14:11:46.447Z,51.8
2018-11-06T14:12:36.131Z,51.4
2018-11-06T14:13:26.607Z,51
2018-11-06T14:14:16.602Z,50.6
2018-11-06T14:15:07.229Z,50.3
2018-11-06T14:15:56.317Z,49.9
2018-11-06T14:16:47.064Z,49.6
2018-11-06T14:17:36.366Z,49.3
2018-11-06T14:18:26.756Z,49
2018-11-06T14:19:17.466Z,48.8
2018-11-06T14:20:07.521Z,48.5
2018-11-06T14:20:56.926Z,48.3
2018-11-06T14:21:47.704Z,48
2018-11-06T14:22:36.939Z,47.8
2018-11-06T14:23:27.061Z,47.5
2018-11-06T14:24:18.003Z,47.4
2018-11-06T14:25:07.342Z,47.1
2018-11-06T14:25:57.544Z,46.9
2018-11-06T14:26:47.759Z,46.8
2018-11-06T14:27:39.048Z,46.6
2018-11-06T14:28:28.030Z,46.4
2018-11-06T14:29:17.312Z,46.3
2018-11-06T14:30:08.477Z,46.1
2018-11-06T14:30:57.413Z,45.9
2018-11-06T14:31:47.992Z,45.8
2018-11-06T14:32:37.758Z,45.6
2018-11-06T14:33:27.240Z,45.5
2018-11-06T14:34:17.030Z,45.3
2018-11-06T14:35:07.567Z,45.2
2018-11-06T14:36:00.427Z,45.1
2018-11-06T14:36:47.660Z,44.9
2018-11-06T14:37:37.359Z,44.8
2018-11-06T14:38:27.773Z,44.7
2018-11-06T14:39:17.852Z,44.5
2018-11-06T14:40:07.599Z,44.4
2018-11-06T14:40:58.746Z,44.3
2018-11-06T14:41:48.527Z,44.2
2018-11-06T14:42:38.972Z,44
2018-11-06T14:43:28.623Z,43.9
2018-11-06T14:44:18.386Z,43.8
2018-11-06T14:45:08.424Z,43.7
2018-11-06T14:45:58.639Z,43.6
2018-11-06T14:46:48.826Z,43.5
2018-11-06T14:47:40.139Z,43.4
2018-11-06T14:48:30.200Z,43.3
2018-11-06T14:49:20.598Z,43.2
2018-11-06T14:50:09.246Z,43.1
2018-11-06T14:50:59.877Z,43
2018-11-06T14:51:49.183Z,42.9
2018-11-06T14:52:39.245Z,42.8
2018-11-06T14:53:29.326Z,42.7
2018-11-06T14:54:19.323Z,42.6
2018-11-06T14:55:09.731Z,42.5
2018-11-06T14:56:00.204Z,42.4
2018-11-06T14:56:49.993Z,42.3
2018-11-06T14:57:40.776Z,42.3
2018-11-06T14:58:29.864Z,42.1
2018-11-06T14:59:20.885Z,42.1
2018-11-06T15:00:10.348Z,41.9
2018-11-06T15:01:00.407Z,41.9
2018-11-06T15:01:50.348Z,41.8
2018-11-06T15:02:40.552Z,41.8
2018-11-06T15:03:30.118Z,41.7
2018-11-06T15:04:19.288Z,41.6
2018-11-06T15:05:09.889Z,41.5
2018-11-06T15:06:00.563Z,41.4
2018-11-06T15:06:50.447Z,41.4
2018-11-06T15:07:40.933Z,41.3
2018-11-06T15:08:30.225Z,41.3
2018-11-06T15:09:20.157Z,41.2
2018-11-06T15:10:10.653Z,41.1
2018-11-06T15:11:00.318Z,41.1
2018-11-06T15:11:50.529Z,41
2018-11-06T15:12:41.561Z,40.9
2018-11-06T15:13:31.505Z,40.9
2018-11-06T15:14:20.811Z,40.8
2018-11-06T15:15:10.817Z,40.8
2018-11-06T15:16:00.523Z,40.7
2018-11-06T15:16:50.944Z,40.6
2018-11-06T15:17:40.747Z,40.6
2018-11-06T15:18:31.522Z,40.5
2018-11-06T15:19:20.792Z,40.4
2018-11-06T15:20:11.145Z,40.4
2018-11-06T15:21:02.270Z,40.3
2018-11-06T15:21:51.762Z,40.2
2018-11-06T15:22:41.299Z,40.2
2018-11-06T15:23:31.444Z,40.1
2018-11-06T15:24:22.041Z,40.1
2018-11-06T15:25:11.544Z,40
2018-11-06T15:26:01.391Z,39.9
2018-11-06T15:26:51.919Z,39.9
2018-11-06T15:27:42.044Z,39.8
2018-11-06T15:28:32.159Z,39.7
2018-11-06T15:29:21.834Z,39.7
2018-11-06T15:30:13.151Z,39.6
2018-11-06T15:31:01.644Z,39.6
2018-11-06T15:31:52.145Z,39.5
2018-11-06T15:32:42.643Z,39.4
2018-11-06T15:33:31.984Z,39.4
2018-11-06T15:34:22.271Z,39.3
2018-11-06T15:35:12.877Z,39.3
2018-11-06T15:36:01.922Z,39.1
2018-11-06T15:36:53.278Z,39.1
2018-11-06T15:37:43.177Z,39.1
2018-11-06T15:38:32.667Z,39